createdAt,value
2018-09-26T00:01:45.945Z,99.90
2018-09-26T00:04:17.894Z,99.90
2018-09-26T00:06:46.360Z,99.90
2018-09-26T00:09:14.806Z,99.90
2018-09-26T00:11:43.242Z,99.90
2018-09-26T00:14:11.707Z,99.90
2018-09-26T00:16:40.380Z,99.90
2018-09-26T00:19:08.890Z,99.90
2018-09-26T00:21:37.354Z,99.90
2018-09-26T00:24:05.834Z,99.90
2018-09-26T00:29:02.476Z,99.90
2018-09-26T00:31:30.941Z,99.90
2018-09-26T00:33:59.462Z,99.90
2018-09-26T00:37:31.402Z,99.90
2018-09-26T00:39:59.869Z,99.90
2018-09-26T00:42:28.312Z,99.90
2018-09-26T00:44:56.802Z,99.90
2018-09-26T00:47:25.286Z,99.90
2018-09-26T00:49:53.758Z,99.90
2018-09-26T00:52:22.242Z,99.90
2018-09-26T00:54:50.671Z,99.90
2018-09-26T00:57:19.133Z,99.90
2018-09-26T00:59:47.604Z,99.90
2018-09-26T01:02:16.047Z,99.90
2018-09-26T01:04:44.509Z,99.90
2018-09-26T01:07:12.979Z,99.90
2018-09-26T01:09:41.388Z,99.90
2018-09-26T01:12:09.874Z,99.90
2018-09-26T01:14:38.309Z,99.90
2018-09-26T01:17:06.750Z,99.90
2018-09-26T01:19:35.211Z,99.90
2018-09-26T01:22:03.669Z,99.90
2018-09-26T01:24:32.167Z,99.90
2018-09-26T01:27:00.617Z,99.90
2018-09-26T01:29:29.057Z,99.90
2018-09-26T01:31:57.560Z,99.90
2018-09-26T01:34:25.997Z,99.90
2018-09-26T01:37:01.173Z,99.90
2018-09-26T01:39:29.623Z,99.90
2018-09-26T01:41:58.081Z,99.90
2018-09-26T01:44:26.527Z,99.90
2018-09-26T01:49:23.127Z,99.90
2018-09-26T01:51:51.569Z,99.90
2018-09-26T01:54:20.017Z,99.90
2018-09-26T01:56:48.434Z,99.90
2018-09-26T01:59:16.885Z,99.90
2018-09-26T02:01:45.323Z,99.90
2018-09-26T02:04:13.765Z,99.90
2018-09-26T02:06:42.191Z,99.90
2018-09-26T02:09:11.915Z,99.90
2018-09-26T02:11:40.490Z,99.90
2018-09-26T02:14:08.911Z,99.90
2018-09-26T02:16:37.365Z,99.90
2018-09-26T02:19:06.051Z,99.90
2018-09-26T02:21:34.517Z,99.90
2018-09-26T02:24:03.049Z,99.90
2018-09-26T02:26:31.488Z,99.90
2018-09-26T02:28:59.933Z,99.90
2018-09-26T02:31:28.374Z,99.90
2018-09-26T02:33:56.865Z,99.90
2018-09-26T02:36:25.301Z,99.90
2018-09-26T02:38:53.769Z,99.90
2018-09-26T02:41:22.225Z,99.90
2018-09-26T02:43:50.673Z,99.90
2018-09-26T02:46:19.161Z,99.90
2018-09-26T02:48:52.783Z,99.90
2018-09-26T02:51:21.246Z,99.90
2018-09-26T02:53:49.672Z,99.90
2018-09-26T02:56:18.122Z,99.90
2018-09-26T02:58:46.585Z,99.90
2018-09-26T03:01:15.045Z,99.90
2018-09-26T03:03:43.488Z,99.90
2018-09-26T03:06:11.897Z,99.90
2018-09-26T03:08:40.349Z,99.90
2018-09-26T03:11:08.803Z,99.90
2018-09-26T03:13:37.237Z,99.90
2018-09-26T03:16:05.704Z,99.90
2018-09-26T03:18:34.134Z,99.90
2018-09-26T03:21:02.614Z,99.90
2018-09-26T03:23:31.038Z,99.90
2018-09-26T03:25:59.542Z,99.90
2018-09-26T03:28:27.982Z,99.90
2018-09-26T03:30:56.434Z,99.90
2018-09-26T03:33:24.875Z,99.90
2018-09-26T03:35:53.349Z,99.90
2018-09-26T03:38:21.782Z,99.90
2018-09-26T03:43:18.366Z,99.90
2018-09-26T03:45:46.810Z,99.90
2018-09-26T03:48:15.258Z,99.90
2018-09-26T03:50:43.705Z,99.90
2018-09-26T03:53:12.140Z,99.90
2018-09-26T03:55:40.585Z,99.90
2018-09-26T03:58:09.032Z,99.90
2018-09-26T04:00:37.489Z,99.90
2018-09-26T04:03:06.094Z,99.90
2018-09-26T04:05:34.570Z,99.90
2018-09-26T04:08:03.031Z,99.90
2018-09-26T04:10:31.457Z,99.90
2018-09-26T04:12:59.965Z,99.90
2018-09-26T04:15:28.424Z,99.90
2018-09-26T04:17:56.954Z,99.90
2018-09-26T04:20:25.493Z,99.90
2018-09-26T04:22:53.866Z,99.90
2018-09-26T04:25:22.335Z,99.90
2018-09-26T04:27:50.865Z,99.90
2018-09-26T04:30:19.354Z,99.90
2018-09-26T04:32:48.017Z,99.90
2018-09-26T04:35:16.536Z,99.90
2018-09-26T04:37:44.988Z,99.90
2018-09-26T04:40:13.449Z,99.90
2018-09-26T04:42:41.987Z,99.90
2018-09-26T04:45:10.540Z,99.90
2018-09-26T04:47:38.993Z,99.90
2018-09-26T04:50:07.483Z,99.90
2018-09-26T04:52:35.966Z,99.90
2018-09-26T04:55:04.465Z,99.90
2018-09-26T04:57:32.902Z,99.90
2018-09-26T05:00:01.434Z,99.90
2018-09-26T05:02:29.915Z,99.90
2018-09-26T05:04:58.451Z,99.90
2018-09-26T05:07:26.924Z,99.90
2018-09-26T05:09:55.374Z,99.90
2018-09-26T05:12:23.838Z,99.90
2018-09-26T05:14:52.395Z,99.90
2018-09-26T05:17:20.818Z,99.90
2018-09-26T05:19:49.381Z,99.90
2018-09-26T05:22:17.868Z,99.90
2018-09-26T05:24:46.410Z,99.90
2018-09-26T05:27:14.853Z,99.90
2018-09-26T05:29:43.323Z,99.90
2018-09-26T05:32:11.770Z,99.90
2018-09-26T05:34:40.209Z,99.90
2018-09-26T05:37:08.745Z,99.90
2018-09-26T05:39:37.248Z,99.90
2018-09-26T05:42:05.701Z,99.90
2018-09-26T05:44:34.139Z,99.90
2018-09-26T05:47:02.593Z,99.90
2018-09-26T05:49:31.069Z,99.90
2018-09-26T05:51:59.493Z,99.90
2018-09-26T05:54:27.917Z,99.90
2018-09-26T05:56:56.443Z,99.90
2018-09-26T05:59:24.909Z,99.90
2018-09-26T06:01:53.449Z,99.90
2018-09-26T06:04:21.879Z,99.90
2018-09-26T06:06:50.357Z,99.90
2018-09-26T06:09:18.818Z,99.90
2018-09-26T06:11:47.247Z,99.90
2018-09-26T06:16:43.827Z,99.90
2018-09-26T06:19:12.253Z,99.90
2018-09-26T06:21:40.717Z,99.90
2018-09-26T06:24:09.215Z,99.90
2018-09-26T06:26:37.711Z,99.90
2018-09-26T06:29:06.505Z,99.90
2018-09-26T06:31:34.939Z,99.90
2018-09-26T06:34:03.401Z,99.90
2018-09-26T06:36:31.881Z,99.90
2018-09-26T06:39:00.399Z,99.90
2018-09-26T06:41:28.866Z,99.90
2018-09-26T06:43:57.313Z,99.90
2018-09-26T06:46:25.783Z,99.90
2018-09-26T06:48:54.213Z,99.90
2018-09-26T06:51:22.685Z,99.90
2018-09-26T06:53:51.112Z,99.90
2018-09-26T06:56:19.591Z,99.90
2018-09-26T06:58:48.013Z,99.90
2018-09-26T07:01:16.437Z,99.90
2018-09-26T07:03:44.882Z,99.90
2018-09-26T07:06:13.326Z,99.90
2018-09-26T07:08:41.778Z,99.90
2018-09-26T07:13:38.330Z,99.90
2018-09-26T07:16:06.826Z,99.90
2018-09-26T07:18:35.304Z,99.90
2018-09-26T07:21:03.837Z,99.90
2018-09-26T07:23:32.249Z,99.90
2018-09-26T07:26:00.671Z,99.90
2018-09-26T07:28:29.102Z,99.90
2018-09-26T07:30:57.546Z,99.90
2018-09-26T07:33:25.984Z,99.90
2018-09-26T07:35:54.438Z,99.90
2018-09-26T07:38:22.876Z,99.90
2018-09-26T07:40:51.333Z,99.90
2018-09-26T07:43:19.789Z,99.90
2018-09-26T07:45:48.239Z,99.90
2018-09-26T07:48:16.699Z,99.90
2018-09-26T07:50:45.232Z,99.90
2018-09-26T07:53:13.663Z,99.90
2018-09-26T07:55:42.102Z,99.90
2018-09-26T07:58:10.526Z,99.90
2018-09-26T08:00:38.978Z,99.90
2018-09-26T08:03:07.796Z,99.90
2018-09-26T08:05:36.258Z,99.90
2018-09-26T08:13:00.930Z,99.90
2018-09-26T08:15:29.525Z,99.90
2018-09-26T08:17:57.958Z,99.90
2018-09-26T08:20:26.424Z,99.90
2018-09-26T08:22:54.883Z,99.90
2018-09-26T08:25:23.384Z,99.90
2018-09-26T08:27:51.827Z,99.90
2018-09-26T08:30:20.344Z,99.10
2018-09-26T08:32:48.793Z,97.90
2018-09-26T08:35:17.214Z,96.70
2018-09-26T08:37:45.775Z,95.50
2018-09-26T08:40:14.206Z,96.30
2018-09-26T08:42:42.641Z,94.10
2018-09-26T08:45:11.065Z,94.40
2018-09-26T08:47:39.484Z,93.70
2018-09-26T08:50:08.451Z,92.40
2018-09-26T08:52:36.898Z,92.40
2018-09-26T08:55:05.401Z,91.30
2018-09-26T08:57:33.835Z,84.00
2018-09-26T09:00:02.331Z,87.30
2018-09-26T09:02:30.787Z,85.70
2018-09-26T09:04:59.218Z,85.30
2018-09-26T09:07:27.685Z,79.90
2018-09-26T09:09:56.165Z,79.80
2018-09-26T09:12:24.635Z,78.90
2018-09-26T09:17:21.251Z,72.80
2018-09-26T09:19:49.706Z,72.40
2018-09-26T09:22:18.158Z,72.50
2018-09-26T09:24:46.587Z,70.20
2018-09-26T09:27:15.165Z,70.30
2018-09-26T09:29:43.584Z,69.70
2018-09-26T09:32:12.069Z,71.50
2018-09-26T09:34:40.479Z,68.80
2018-09-26T09:37:08.951Z,66.40
2018-09-26T09:39:37.435Z,67.90
2018-09-26T09:42:05.896Z,63.10
2018-09-26T09:44:34.384Z,63.70
2018-09-26T09:47:02.804Z,63.80
2018-09-26T09:49:31.247Z,65.00
2018-09-26T09:51:59.798Z,60.60
2018-09-26T09:54:28.262Z,60.80
2018-09-26T09:56:56.721Z,62.60
2018-09-26T09:59:25.213Z,59.80
2018-09-26T10:01:53.670Z,60.30
2018-09-26T10:04:22.116Z,61.80
2018-09-26T10:06:50.553Z,59.80
2018-09-26T10:09:19.066Z,59.90
2018-09-26T10:11:47.532Z,63.30
2018-09-26T10:14:16.070Z,65.40
2018-09-26T10:16:44.590Z,63.10
2018-09-26T10:19:13.073Z,64.00
2018-09-26T10:21:41.525Z,63.80
2018-09-26T10:24:10.010Z,66.50
2018-09-26T10:26:38.458Z,63.70
2018-09-26T10:29:06.908Z,64.50
2018-09-26T10:31:35.344Z,59.80
2018-09-26T10:34:03.890Z,62.20
2018-09-26T10:36:32.388Z,58.40
2018-09-26T10:39:00.829Z,58.30
2018-09-26T10:41:29.382Z,60.70
2018-09-26T10:43:57.826Z,61.00
2018-09-26T10:46:26.290Z,63.60
2018-09-26T10:48:54.766Z,63.70
2018-09-26T10:51:23.220Z,63.40
2018-09-26T10:53:51.634Z,63.40
2018-09-26T10:56:20.198Z,64.00
2018-09-26T10:58:48.573Z,63.80
2018-09-26T11:01:17.042Z,61.60
2018-09-26T11:03:45.493Z,60.40
2018-09-26T11:06:13.954Z,61.20
2018-09-26T11:08:42.395Z,62.90
2018-09-26T11:11:10.878Z,63.40
2018-09-26T11:13:39.348Z,64.40
2018-09-26T11:16:08.132Z,62.20
2018-09-26T11:18:36.586Z,64.00
2018-09-26T11:21:05.154Z,64.70
2018-09-26T11:23:33.592Z,59.10
2018-09-26T11:26:02.057Z,60.50
2018-09-26T11:28:30.549Z,57.50
2018-09-26T11:30:59.035Z,59.30
2018-09-26T11:33:27.601Z,60.70
2018-09-26T11:35:56.024Z,58.80
2018-09-26T11:38:24.559Z,58.70
2018-09-26T11:40:52.991Z,55.90
2018-09-26T11:43:21.649Z,58.20
2018-09-26T11:45:50.208Z,58.20
2018-09-26T11:48:18.823Z,60.30
2018-09-26T11:50:47.331Z,60.00
2018-09-26T11:53:15.821Z,57.50
2018-09-26T11:55:44.362Z,58.80
2018-09-26T11:58:12.942Z,59.10
2018-09-26T12:00:41.483Z,57.60
2018-09-26T12:03:10.024Z,55.50
2018-09-26T12:05:38.553Z,57.90
2018-09-26T12:08:07.241Z,54.80
2018-09-26T12:10:35.717Z,55.30
2018-09-26T12:13:04.273Z,56.60
2018-09-26T12:15:32.791Z,55.20
2018-09-26T12:18:01.349Z,54.90
2018-09-26T12:20:29.895Z,54.30
2018-09-26T12:22:58.427Z,54.70
2018-09-26T12:25:26.929Z,54.10
2018-09-26T12:27:55.929Z,55.10
2018-09-26T12:30:24.488Z,57.40
2018-09-26T12:32:53.009Z,60.20
2018-09-26T12:35:21.544Z,65.40
2018-09-26T12:37:50.057Z,65.50
2018-09-26T12:40:18.600Z,64.40
2018-09-26T12:42:47.118Z,66.80
2018-09-26T12:45:15.630Z,66.00
2018-09-26T12:47:44.403Z,65.50
2018-09-26T12:50:12.875Z,67.50
2018-09-26T12:52:41.411Z,64.80
2018-09-26T12:55:09.906Z,65.30
2018-09-26T12:57:38.417Z,65.60
2018-09-26T13:00:07.004Z,68.10
2018-09-26T13:02:35.498Z,65.90
2018-09-26T13:05:04.114Z,65.60
2018-09-26T13:07:32.604Z,67.30
2018-09-26T13:10:01.081Z,67.80
2018-09-26T13:12:29.562Z,68.70
2018-09-26T13:17:26.359Z,67.40
2018-09-26T13:19:54.863Z,67.80
2018-09-26T13:22:23.427Z,72.20
2018-09-26T13:24:51.916Z,68.70
2018-09-26T13:27:20.442Z,67.80
2018-09-26T13:29:48.975Z,66.40
2018-09-26T13:32:17.483Z,66.80
2018-09-26T13:34:47.954Z,66.80
2018-09-26T13:37:16.449Z,67.60
2018-09-26T13:39:44.943Z,69.40
2018-09-26T13:42:13.431Z,68.00
2018-09-26T13:44:42.075Z,67.60
2018-09-26T13:47:10.574Z,67.70
2018-09-26T13:49:39.077Z,68.70
2018-09-26T13:52:07.611Z,67.20
2018-09-26T13:54:36.249Z,68.40
2018-09-26T13:57:04.641Z,67.20
2018-09-26T13:59:33.140Z,70.80
2018-09-26T14:02:01.678Z,70.70
2018-09-26T14:04:30.183Z,68.90
2018-09-26T14:06:58.732Z,67.50
2018-09-26T14:09:27.260Z,70.50
2018-09-26T14:11:55.752Z,70.00
2018-09-26T14:14:24.320Z,69.40
2018-09-26T14:16:52.716Z,68.80
2018-09-26T14:19:21.215Z,69.30
2018-09-26T14:21:49.760Z,68.50
2018-09-26T14:24:18.265Z,67.60
2018-09-26T14:26:46.823Z,68.10
2018-09-26T14:29:15.372Z,68.10
2018-09-26T14:31:43.788Z,67.20
2018-09-26T14:34:12.234Z,68.80
2018-09-26T14:36:40.778Z,69.80
2018-09-26T14:39:09.318Z,70.40
2018-09-26T14:41:37.787Z,64.10
2018-09-26T14:44:06.447Z,64.80
2018-09-26T14:46:34.965Z,63.60
2018-09-26T14:49:03.449Z,64.90
2018-09-26T14:51:32.015Z,63.00
2018-09-26T14:54:00.501Z,63.70
2018-09-26T14:56:28.962Z,61.10
2018-09-26T14:58:57.550Z,61.50
2018-09-26T15:01:26.129Z,62.60
2018-09-26T15:03:54.679Z,64.50
2018-09-26T15:06:23.260Z,65.40
2018-09-26T15:08:52.003Z,66.70
2018-09-26T15:11:20.415Z,64.70
2018-09-26T15:13:48.934Z,64.60
2018-09-26T15:16:17.503Z,65.20
2018-09-26T15:18:46.016Z,66.30
2018-09-26T15:21:14.672Z,67.50
2018-09-26T15:23:43.160Z,67.30
2018-09-26T15:26:11.680Z,64.60
2018-09-26T15:28:40.173Z,64.90
2018-09-26T15:31:08.675Z,63.60
2018-09-26T15:33:37.159Z,64.60
2018-09-26T15:36:05.677Z,65.50
2018-09-26T15:38:34.179Z,67.20
2018-09-26T15:41:02.679Z,68.20
2018-09-26T15:43:31.168Z,65.40
2018-09-26T15:45:59.656Z,65.30
2018-09-26T15:48:31.107Z,70.10
2018-09-26T15:50:59.580Z,70.80
2018-09-26T15:53:28.050Z,71.60
2018-09-26T15:55:56.540Z,72.40
2018-09-26T15:58:25.077Z,74.50
2018-09-26T16:03:21.838Z,77.20
2018-09-26T16:05:50.416Z,77.40
2018-09-26T16:08:18.970Z,83.80
2018-09-26T16:10:48.323Z,85.20
2018-09-26T16:13:16.771Z,85.10
2018-09-26T16:15:45.252Z,90.20
2018-09-26T16:18:13.847Z,91.50
2018-09-26T16:20:42.369Z,91.90
2018-09-26T16:23:11.363Z,91.60
2018-09-26T16:25:39.993Z,92.90
2018-09-26T16:28:08.558Z,93.40
2018-09-26T16:30:37.045Z,94.70
2018-09-26T16:33:05.595Z,96.20
2018-09-26T16:35:34.153Z,99.90
2018-09-26T16:38:02.687Z,99.90
2018-09-26T16:40:31.247Z,99.90
2018-09-26T16:42:59.835Z,99.90
2018-09-26T16:45:28.417Z,99.90
2018-09-26T16:47:58.176Z,99.90
2018-09-26T16:52:55.892Z,99.90
2018-09-26T16:55:24.422Z,99.90
2018-09-26T16:57:52.954Z,99.90
2018-09-26T17:00:21.556Z,99.90
2018-09-26T17:02:50.062Z,99.90
2018-09-26T17:07:47.666Z,99.90
2018-09-26T17:12:44.646Z,99.90
2018-09-26T17:15:13.962Z,99.90
2018-09-26T17:20:11.280Z,99.90
2018-09-26T17:22:39.838Z,99.90
2018-09-26T17:25:08.841Z,99.90
2018-09-26T17:27:38.371Z,99.90
2018-09-26T17:30:07.602Z,99.90
2018-09-26T17:35:05.077Z,99.90
2018-09-26T17:37:33.849Z,99.90
2018-09-26T17:40:02.401Z,99.90
2018-09-26T17:42:31.321Z,99.90
2018-09-26T17:45:01.980Z,99.90
2018-09-26T17:47:30.636Z,99.90
2018-09-26T17:50:00.393Z,99.90
2018-09-26T17:52:30.457Z,99.90
2018-09-26T17:54:59.364Z,99.90
2018-09-26T17:57:28.034Z,99.90
2018-09-26T18:02:26.336Z,99.90
2018-09-26T18:04:55.608Z,99.90
2018-09-26T18:07:24.350Z,99.90
2018-09-26T18:09:53.041Z,99.90
2018-09-26T18:12:22.947Z,99.90
2018-09-26T18:14:51.850Z,99.90
2018-09-26T18:17:20.459Z,99.90
2018-09-26T18:19:50.021Z,99.90
2018-09-26T18:22:19.984Z,99.90
2018-09-26T18:24:48.568Z,99.90
2018-09-26T18:29:47.477Z,99.90
2018-09-26T18:32:16.096Z,99.90
2018-09-26T18:34:44.708Z,99.90
2018-09-26T18:37:14.569Z,99.90
2018-09-26T18:42:11.895Z,99.90
2018-09-26T18:47:10.606Z,99.90
2018-09-26T18:49:39.433Z,99.90
2018-09-26T18:52:08.331Z,99.90
2018-09-26T18:54:40.391Z,99.90
2018-09-26T18:57:09.666Z,99.90
2018-09-26T19:02:09.313Z,99.90
2018-09-26T19:04:39.065Z,99.90
2018-09-26T19:07:07.743Z,99.90
2018-09-26T19:09:37.885Z,99.90
2018-09-26T19:12:08.577Z,99.90
2018-09-26T19:14:37.410Z,99.90
2018-09-26T19:17:07.257Z,99.90
2018-09-26T19:19:36.101Z,99.90
2018-09-26T19:22:05.034Z,99.90
2018-09-26T19:24:34.431Z,99.90
2018-09-26T19:27:04.965Z,99.90
2018-09-26T19:29:34.368Z,99.90
2018-09-26T19:34:31.799Z,99.90
2018-09-26T19:37:00.442Z,99.90
2018-09-26T19:39:29.484Z,99.90
2018-09-26T19:42:00.216Z,99.90
2018-09-26T19:44:28.815Z,99.90
2018-09-26T19:46:58.349Z,99.90
2018-09-26T19:49:27.054Z,99.90
2018-09-26T19:51:56.006Z,99.90
2018-09-26T19:54:25.044Z,99.90
2018-09-26T19:56:54.919Z,99.90
2018-09-26T19:59:23.555Z,99.90
2018-09-26T20:01:55.144Z,99.90
2018-09-26T20:04:23.926Z,99.90
2018-09-26T20:06:53.618Z,99.90
2018-09-26T20:09:26.720Z,99.90
2018-09-26T20:11:57.205Z,99.90
2018-09-26T20:14:26.236Z,99.90
2018-09-26T20:16:57.891Z,99.90
2018-09-26T20:19:29.054Z,99.90
2018-09-26T20:21:57.680Z,99.90
2018-09-26T20:24:28.351Z,99.90
2018-09-26T20:26:57.515Z,99.90
2018-09-26T20:29:26.457Z,99.90
2018-09-26T20:31:55.462Z,99.90
2018-09-26T20:34:28.212Z,99.90
2018-09-26T20:36:56.829Z,99.90
2018-09-26T20:39:25.624Z,99.90
2018-09-26T20:41:54.915Z,99.90
2018-09-26T20:44:23.548Z,99.90
2018-09-26T20:46:52.090Z,99.90
2018-09-26T20:49:20.712Z,99.90
2018-09-26T20:51:49.665Z,99.90
2018-09-26T20:54:18.850Z,99.90
2018-09-26T20:56:47.452Z,99.90
2018-09-26T20:59:16.710Z,99.90
2018-09-26T21:01:45.299Z,99.90
2018-09-26T21:04:13.887Z,99.90
2018-09-26T21:06:42.454Z,99.90
2018-09-26T21:09:11.407Z,99.90
2018-09-26T21:11:40.693Z,99.90
2018-09-26T21:14:09.778Z,99.90
2018-09-26T21:16:38.382Z,99.90
2018-09-26T21:19:06.954Z,99.90
2018-09-26T21:21:36.120Z,99.90
2018-09-26T21:24:04.674Z,99.90
2018-09-26T21:26:34.237Z,99.90
2018-09-26T21:29:02.732Z,99.90
2018-09-26T21:31:31.257Z,99.90
2018-09-26T21:33:59.733Z,99.90
2018-09-26T21:38:56.433Z,99.90
2018-09-26T21:41:24.892Z,99.90
2018-09-26T21:43:53.362Z,99.90
2018-09-26T21:46:21.879Z,99.90
2018-09-26T21:48:50.405Z,99.90
2018-09-26T21:51:18.889Z,99.90
2018-09-26T21:53:47.406Z,99.90
2018-09-26T21:56:15.951Z,99.90
2018-09-26T22:01:14.562Z,99.90
2018-09-26T22:03:42.993Z,99.90
2018-09-26T22:06:12.241Z,99.90
2018-09-26T22:08:40.949Z,99.90
2018-09-26T22:11:09.418Z,99.90
2018-09-26T22:13:37.878Z,99.90
2018-09-26T22:16:06.458Z,99.90
2018-09-26T22:18:35.798Z,99.90
2018-09-26T22:21:04.301Z,99.90
2018-09-26T22:23:32.837Z,99.90
2018-09-26T22:26:01.231Z,99.90
2018-09-26T22:28:29.690Z,99.90
2018-09-26T22:30:58.165Z,99.90
2018-09-26T22:33:26.565Z,99.90
2018-09-26T22:38:23.261Z,99.90
2018-09-26T22:40:51.713Z,99.90
2018-09-26T22:43:20.193Z,99.90
2018-09-26T22:45:48.626Z,99.90
2018-09-26T22:48:17.058Z,99.90
2018-09-26T22:50:45.530Z,99.90
2018-09-26T22:53:13.986Z,99.90
2018-09-26T22:55:42.454Z,99.90
2018-09-26T22:58:10.975Z,99.90
2018-09-26T23:00:39.420Z,99.90
2018-09-26T23:03:07.874Z,99.90
2018-09-26T23:05:36.328Z,99.90
2018-09-26T23:08:04.764Z,99.90
2018-09-26T23:10:33.205Z,99.90
2018-09-26T23:13:01.755Z,99.90
2018-09-26T23:15:30.206Z,99.90
2018-09-26T23:17:58.639Z,99.90
2018-09-26T23:20:27.078Z,99.90
2018-09-26T23:22:55.519Z,99.90
2018-09-26T23:25:24.004Z,99.90
2018-09-26T23:27:52.472Z,99.90
2018-09-26T23:30:20.934Z,99.90
2018-09-26T23:32:49.370Z,99.90
2018-09-26T23:35:17.829Z,99.90
2018-09-26T23:37:46.274Z,99.90
2018-09-26T23:40:14.769Z,99.90
2018-09-26T23:42:43.238Z,99.90
2018-09-26T23:45:11.671Z,99.90
2018-09-26T23:47:40.139Z,99.90
2018-09-26T23:50:08.623Z,99.90
2018-09-26T23:52:37.074Z,99.90
2018-09-26T23:55:05.582Z,99.90
2018-09-26T23:57:34.115Z,99.90
